sensor_id;sensor_type;location;lat;lon;timestamp;P1;durP1;ratioP1;P2;durP2;ratioP2
23288;SDS011;11813;50.834;4.280;2022-10-16T00:00:52;2.73;;;0.90;;
23288;SDS011;11813;50.834;4.280;2022-10-16T00:03:18;3.53;;;1.00;;
23288;SDS011;11813;50.834;4.280;2022-10-16T00:05:43;1.03;;;0.90;;
23288;SDS011;11813;50.834;4.280;2022-10-16T00:08:12;4.87;;;1.10;;
23288;SDS011;11813;50.834;4.280;2022-10-16T00:10:38;1.30;;;1.20;;
23288;SDS011;11813;50.834;4.280;2022-10-16T00:13:04;1.33;;;1.10;;
23288;SDS011;11813;50.834;4.280;2022-10-16T00:15:34;2.20;;;1.00;;
23288;SDS011;11813;50.834;4.280;2022-10-16T00:18:01;3.07;;;1.10;;
23288;SDS011;11813;50.834;4.280;2022-10-16T00:20:28;1.83;;;1.17;;
23288;SDS011;11813;50.834;4.280;2022-10-16T00:22:54;2.03;;;0.87;;
23288;SDS011;11813;50.834;4.280;2022-10-16T00:25:19;1.20;;;1.10;;
23288;SDS011;11813;50.834;4.280;2022-10-16T00:27:45;1.23;;;1.03;;
23288;SDS011;11813;50.834;4.280;2022-10-16T00:30:10;1.63;;;1.10;;
23288;SDS011;11813;50.834;4.280;2022-10-16T00:32:36;4.40;;;1.40;;
23288;SDS011;11813;50.834;4.280;2022-10-16T00:35:01;1.23;;;1.03;;
23288;SDS011;11813;50.834;4.280;2022-10-16T00:37:28;1.43;;;1.00;;
23288;SDS011;11813;50.834;4.280;2022-10-16T00:39:54;2.70;;;1.17;;
23288;SDS011;11813;50.834;4.280;2022-10-16T00:42:19;1.87;;;1.13;;
23288;SDS011;11813;50.834;4.280;2022-10-16T00:44:50;1.50;;;1.20;;
23288;SDS011;11813;50.834;4.280;2022-10-16T00:47:18;1.20;;;1.10;;
23288;SDS011;11813;50.834;4.280;2022-10-16T00:49:51;3.17;;;1.00;;
23288;SDS011;11813;50.834;4.280;2022-10-16T00:52:22;1.20;;;1.10;;
23288;SDS011;11813;50.834;4.280;2022-10-16T00:54:49;1.60;;;1.20;;
23288;SDS011;11813;50.834;4.280;2022-10-16T00:57:15;1.50;;;1.07;;
23288;SDS011;11813;50.834;4.280;2022-10-16T00:59:41;2.43;;;1.40;;
23288;SDS011;11813;50.834;4.280;2022-10-16T01:02:09;1.57;;;1.30;;
23288;SDS011;11813;50.834;4.280;2022-10-16T01:04:39;3.03;;;1.47;;
23288;SDS011;11813;50.834;4.280;2022-10-16T01:15:29;1.43;;;1.33;;
23288;SDS011;11813;50.834;4.280;2022-10-16T01:20:31;2.27;;;1.10;;
23288;SDS011;11813;50.834;4.280;2022-10-16T01:23:25;2.00;;;1.30;;
23288;SDS011;11813;50.834;4.280;2022-10-16T01:28:30;1.57;;;1.40;;
23288;SDS011;11813;50.834;4.280;2022-10-16T01:31:03;2.23;;;1.40;;
23288;SDS011;11813;50.834;4.280;2022-10-16T01:33:38;1.83;;;1.40;;
23288;SDS011;11813;50.834;4.280;2022-10-16T01:36:12;4.73;;;1.30;;
23288;SDS011;11813;50.834;4.280;2022-10-16T01:38:40;3.07;;;1.60;;
23288;SDS011;11813;50.834;4.280;2022-10-16T01:41:12;4.07;;;1.70;;
23288;SDS011;11813;50.834;4.280;2022-10-16T01:43:47;4.60;;;1.33;;
23288;SDS011;11813;50.834;4.280;2022-10-16T01:46:16;1.63;;;1.37;;
23288;SDS011;11813;50.834;4.280;2022-10-16T01:48:45;1.87;;;1.40;;
23288;SDS011;11813;50.834;4.280;2022-10-16T01:51:12;2.70;;;1.40;;
23288;SDS011;11813;50.834;4.280;2022-10-16T01:53:40;3.53;;;1.50;;
23288;SDS011;11813;50.834;4.280;2022-10-16T01:56:09;2.00;;;1.53;;
23288;SDS011;11813;50.834;4.280;2022-10-16T01:58:40;2.80;;;1.47;;
23288;SDS011;11813;50.834;4.280;2022-10-16T02:01:12;3.97;;;1.70;;
23288;SDS011;11813;50.834;4.280;2022-10-16T02:03:42;2.97;;;1.50;;
23288;SDS011;11813;50.834;4.280;2022-10-16T02:06:09;4.43;;;1.60;;
23288;SDS011;11813;50.834;4.280;2022-10-16T02:08:35;1.97;;;1.50;;
23288;SDS011;11813;50.834;4.280;2022-10-16T02:11:01;2.73;;;1.60;;
23288;SDS011;11813;50.834;4.280;2022-10-16T02:13:30;3.77;;;1.43;;
23288;SDS011;11813;50.834;4.280;2022-10-16T02:15:59;3.40;;;1.50;;
23288;SDS011;11813;50.834;4.280;2022-10-16T02:18:26;6.43;;;1.50;;
23288;SDS011;11813;50.834;4.280;2022-10-16T02:20:59;3.23;;;1.63;;
23288;SDS011;11813;50.834;4.280;2022-10-16T02:23:40;3.07;;;1.43;;
23288;SDS011;11813;50.834;4.280;2022-10-16T02:26:07;4.10;;;1.63;;
23288;SDS011;11813;50.834;4.280;2022-10-16T02:28:42;3.03;;;1.50;;
23288;SDS011;11813;50.834;4.280;2022-10-16T02:31:12;2.43;;;1.60;;
23288;SDS011;11813;50.834;4.280;2022-10-16T02:33:43;5.70;;;1.50;;
23288;SDS011;11813;50.834;4.280;2022-10-16T02:36:10;1.77;;;1.60;;
23288;SDS011;11813;50.834;4.280;2022-10-16T02:38:36;6.80;;;1.90;;
23288;SDS011;11813;50.834;4.280;2022-10-16T02:41:04;3.73;;;1.90;;
23288;SDS011;11813;50.834;4.280;2022-10-16T02:43:30;2.90;;;1.73;;
23288;SDS011;11813;50.834;4.280;2022-10-16T02:45:56;2.80;;;1.47;;
23288;SDS011;11813;50.834;4.280;2022-10-16T02:48:22;4.67;;;1.60;;
23288;SDS011;11813;50.834;4.280;2022-10-16T02:50:48;1.80;;;1.67;;
23288;SDS011;11813;50.834;4.280;2022-10-16T02:53:13;3.80;;;1.73;;
23288;SDS011;11813;50.834;4.280;2022-10-16T02:55:39;4.43;;;1.87;;
23288;SDS011;11813;50.834;4.280;2022-10-16T02:58:04;2.03;;;1.73;;
23288;SDS011;11813;50.834;4.280;2022-10-16T03:00:30;1.87;;;1.67;;
23288;SDS011;11813;50.834;4.280;2022-10-16T03:02:56;4.00;;;2.03;;
23288;SDS011;11813;50.834;4.280;2022-10-16T03:05:22;4.80;;;1.93;;
23288;SDS011;11813;50.834;4.280;2022-10-16T03:07:47;2.33;;;1.80;;
23288;SDS011;11813;50.834;4.280;2022-10-16T03:10:13;2.27;;;2.07;;
23288;SDS011;11813;50.834;4.280;2022-10-16T03:12:38;2.47;;;1.70;;
23288;SDS011;11813;50.834;4.280;2022-10-16T03:15:04;2.03;;;1.77;;
23288;SDS011;11813;50.834;4.280;2022-10-16T03:17:31;1.70;;;1.50;;
23288;SDS011;11813;50.834;4.280;2022-10-16T03:19:56;4.57;;;2.00;;
23288;SDS011;11813;50.834;4.280;2022-10-16T03:22:22;5.47;;;2.00;;
23288;SDS011;11813;50.834;4.280;2022-10-16T03:24:47;4.00;;;2.10;;
23288;SDS011;11813;50.834;4.280;2022-10-16T03:27:13;3.67;;;1.70;;
23288;SDS011;11813;50.834;4.280;2022-10-16T03:29:38;2.80;;;1.90;;
23288;SDS011;11813;50.834;4.280;2022-10-16T03:32:04;4.17;;;2.30;;
23288;SDS011;11813;50.834;4.280;2022-10-16T03:34:30;2.70;;;2.03;;
23288;SDS011;11813;50.834;4.280;2022-10-16T03:36:55;2.20;;;1.77;;
23288;SDS011;11813;50.834;4.280;2022-10-16T03:39:21;6.13;;;1.70;;
23288;SDS011;11813;50.834;4.280;2022-10-16T03:41:47;3.13;;;2.00;;
23288;SDS011;11813;50.834;4.280;2022-10-16T03:44:13;6.27;;;1.97;;
23288;SDS011;11813;50.834;4.280;2022-10-16T03:46:38;7.27;;;2.30;;
23288;SDS011;11813;50.834;4.280;2022-10-16T03:49:04;4.53;;;2.20;;
23288;SDS011;11813;50.834;4.280;2022-10-16T03:51:30;3.83;;;2.23;;
23288;SDS011;11813;50.834;4.280;2022-10-16T03:53:56;4.43;;;1.97;;
23288;SDS011;11813;50.834;4.280;2022-10-16T03:56:22;5.90;;;2.17;;
23288;SDS011;11813;50.834;4.280;2022-10-16T03:58:47;5.03;;;2.43;;
23288;SDS011;11813;50.834;4.280;2022-10-16T04:01:14;4.17;;;2.40;;
23288;SDS011;11813;50.834;4.280;2022-10-16T04:03:40;4.63;;;2.10;;
23288;SDS011;11813;50.834;4.280;2022-10-16T04:06:06;7.63;;;1.90;;
23288;SDS011;11813;50.834;4.280;2022-10-16T04:08:31;9.03;;;2.00;;
23288;SDS011;11813;50.834;4.280;2022-10-16T04:10:59;3.27;;;2.20;;
23288;SDS011;11813;50.834;4.280;2022-10-16T04:13:26;9.40;;;2.10;;
23288;SDS011;11813;50.834;4.280;2022-10-16T04:15:51;2.20;;;2.00;;
23288;SDS011;11813;50.834;4.280;2022-10-16T04:18:17;8.63;;;2.37;;
23288;SDS011;11813;50.834;4.280;2022-10-16T04:20:42;3.20;;;2.00;;
23288;SDS011;11813;50.834;4.280;2022-10-16T04:23:08;4.27;;;2.30;;
23288;SDS011;11813;50.834;4.280;2022-10-16T04:25:33;2.80;;;1.70;;
23288;SDS011;11813;50.834;4.280;2022-10-16T04:27:59;5.03;;;1.90;;
23288;SDS011;11813;50.834;4.280;2022-10-16T04:30:24;5.97;;;1.80;;
23288;SDS011;11813;50.834;4.280;2022-10-16T04:32:51;3.27;;;1.93;;
23288;SDS011;11813;50.834;4.280;2022-10-16T04:35:17;2.37;;;2.07;;
23288;SDS011;11813;50.834;4.280;2022-10-16T04:37:44;3.53;;;1.77;;
23288;SDS011;11813;50.834;4.280;2022-10-16T04:40:09;3.27;;;1.90;;
23288;SDS011;11813;50.834;4.280;2022-10-16T04:42:35;7.43;;;2.30;;
23288;SDS011;11813;50.834;4.280;2022-10-16T04:45:01;5.07;;;2.37;;
23288;SDS011;11813;50.834;4.280;2022-10-16T04:47:27;3.87;;;2.27;;
23288;SDS011;11813;50.834;4.280;2022-10-16T04:49:53;7.00;;;2.50;;
23288;SDS011;11813;50.834;4.280;2022-10-16T04:52:18;4.87;;;2.00;;
23288;SDS011;11813;50.834;4.280;2022-10-16T04:54:46;2.47;;;1.83;;
23288;SDS011;11813;50.834;4.280;2022-10-16T04:57:12;3.83;;;2.20;;
23288;SDS011;11813;50.834;4.280;2022-10-16T04:59:37;5.73;;;2.50;;
23288;SDS011;11813;50.834;4.280;2022-10-16T05:02:03;7.00;;;2.40;;
23288;SDS011;11813;50.834;4.280;2022-10-16T05:04:28;3.67;;;2.03;;
23288;SDS011;11813;50.834;4.280;2022-10-16T05:06:54;4.97;;;2.67;;
23288;SDS011;11813;50.834;4.280;2022-10-16T05:09:20;4.17;;;2.47;;
23288;SDS011;11813;50.834;4.280;2022-10-16T05:11:45;3.30;;;2.07;;
23288;SDS011;11813;50.834;4.280;2022-10-16T05:14:11;3.47;;;2.30;;
23288;SDS011;11813;50.834;4.280;2022-10-16T05:16:37;2.57;;;2.07;;
23288;SDS011;11813;50.834;4.280;2022-10-16T05:19:02;4.57;;;2.50;;
23288;SDS011;11813;50.834;4.280;2022-10-16T05:21:28;4.60;;;2.17;;
23288;SDS011;11813;50.834;4.280;2022-10-16T05:23:54;2.97;;;2.23;;
23288;SDS011;11813;50.834;4.280;2022-10-16T05:26:20;4.07;;;2.30;;
23288;SDS011;11813;50.834;4.280;2022-10-16T05:28:47;8.53;;;2.70;;
23288;SDS011;11813;50.834;4.280;2022-10-16T05:31:14;3.13;;;2.20;;
23288;SDS011;11813;50.834;4.280;2022-10-16T05:33:40;5.00;;;2.30;;
23288;SDS011;11813;50.834;4.280;2022-10-16T05:36:06;3.20;;;2.30;;
23288;SDS011;11813;50.834;4.280;2022-10-16T05:38:34;5.73;;;2.70;;
23288;SDS011;11813;50.834;4.280;2022-10-16T05:41:00;3.50;;;2.23;;
23288;SDS011;11813;50.834;4.280;2022-10-16T05:43:27;7.90;;;2.80;;
23288;SDS011;11813;50.834;4.280;2022-10-16T05:48:21;6.07;;;2.40;;
23288;SDS011;11813;50.834;4.280;2022-10-16T05:50:47;5.03;;;2.20;;
23288;SDS011;11813;50.834;4.280;2022-10-16T05:53:13;4.03;;;2.63;;
23288;SDS011;11813;50.834;4.280;2022-10-16T05:55:38;11.80;;;2.83;;
23288;SDS011;11813;50.834;4.280;2022-10-16T05:58:04;5.83;;;2.50;;
23288;SDS011;11813;50.834;4.280;2022-10-16T06:00:29;4.97;;;2.87;;
23288;SDS011;11813;50.834;4.280;2022-10-16T06:02:55;3.87;;;2.10;;
23288;SDS011;11813;50.834;4.280;2022-10-16T06:05:21;5.67;;;2.53;;
23288;SDS011;11813;50.834;4.280;2022-10-16T06:07:47;5.00;;;2.53;;
23288;SDS011;11813;50.834;4.280;2022-10-16T06:10:12;4.80;;;2.30;;
23288;SDS011;11813;50.834;4.280;2022-10-16T06:12:38;5.23;;;2.67;;
23288;SDS011;11813;50.834;4.280;2022-10-16T06:15:04;6.37;;;2.50;;
23288;SDS011;11813;50.834;4.280;2022-10-16T06:17:30;3.57;;;2.87;;
23288;SDS011;11813;50.834;4.280;2022-10-16T06:19:55;6.40;;;2.67;;
23288;SDS011;11813;50.834;4.280;2022-10-16T06:22:21;4.50;;;2.20;;
23288;SDS011;11813;50.834;4.280;2022-10-16T06:24:47;3.67;;;2.63;;
23288;SDS011;11813;50.834;4.280;2022-10-16T06:27:12;5.27;;;2.50;;
23288;SDS011;11813;50.834;4.280;2022-10-16T06:29:38;3.73;;;3.17;;
23288;SDS011;11813;50.834;4.280;2022-10-16T06:32:04;6.77;;;3.17;;
23288;SDS011;11813;50.834;4.280;2022-10-16T06:34:29;6.80;;;2.73;;
23288;SDS011;11813;50.834;4.280;2022-10-16T06:36:55;5.97;;;2.80;;
23288;SDS011;11813;50.834;4.280;2022-10-16T06:39:21;4.23;;;2.53;;
23288;SDS011;11813;50.834;4.280;2022-10-16T06:41:46;5.67;;;2.77;;
23288;SDS011;11813;50.834;4.280;2022-10-16T06:44:12;7.10;;;2.90;;
23288;SDS011;11813;50.834;4.280;2022-10-16T06:46:38;8.47;;;2.40;;
23288;SDS011;11813;50.834;4.280;2022-10-16T06:49:03;6.07;;;2.57;;
23288;SDS011;11813;50.834;4.280;2022-10-16T06:51:29;3.80;;;2.60;;
23288;SDS011;11813;50.834;4.280;2022-10-16T06:53:56;6.57;;;2.60;;
23288;SDS011;11813;50.834;4.280;2022-10-16T06:56:23;5.67;;;2.60;;
23288;SDS011;11813;50.834;4.280;2022-10-16T06:58:50;5.27;;;2.40;;
23288;SDS011;11813;50.834;4.280;2022-10-16T07:01:19;3.07;;;2.20;;
23288;SDS011;11813;50.834;4.280;2022-10-16T07:03:46;5.50;;;2.90;;
23288;SDS011;11813;50.834;4.280;2022-10-16T07:06:14;4.90;;;2.60;;
23288;SDS011;11813;50.834;4.280;2022-10-16T07:08:43;5.57;;;2.93;;
23288;SDS011;11813;50.834;4.280;2022-10-16T07:11:11;3.53;;;2.20;;
23288;SDS011;11813;50.834;4.280;2022-10-16T07:13:39;4.97;;;2.50;;
23288;SDS011;11813;50.834;4.280;2022-10-16T07:18:31;6.73;;;2.43;;
23288;SDS011;11813;50.834;4.280;2022-10-16T07:21:07;4.70;;;2.40;;
23288;SDS011;11813;50.834;4.280;2022-10-16T07:23:35;7.07;;;2.37;;
23288;SDS011;11813;50.834;4.280;2022-10-16T07:26:00;7.63;;;2.93;;
23288;SDS011;11813;50.834;4.280;2022-10-16T07:28:27;7.10;;;2.40;;
23288;SDS011;11813;50.834;4.280;2022-10-16T07:30:53;5.13;;;2.33;;
23288;SDS011;11813;50.834;4.280;2022-10-16T07:33:19;10.63;;;3.90;;
23288;SDS011;11813;50.834;4.280;2022-10-16T07:35:52;5.50;;;2.30;;
23288;SDS011;11813;50.834;4.280;2022-10-16T07:38:19;5.63;;;2.50;;
23288;SDS011;11813;50.834;4.280;2022-10-16T07:40:45;3.33;;;2.30;;
23288;SDS011;11813;50.834;4.280;2022-10-16T07:43:11;3.77;;;2.40;;
23288;SDS011;11813;50.834;4.280;2022-10-16T07:45:37;5.53;;;2.47;;
23288;SDS011;11813;50.834;4.280;2022-10-16T07:48:10;4.23;;;2.40;;
23288;SDS011;11813;50.834;4.280;2022-10-16T07:50:36;4.70;;;2.60;;
23288;SDS011;11813;50.834;4.280;2022-10-16T07:53:02;6.23;;;2.63;;
23288;SDS011;11813;50.834;4.280;2022-10-16T07:55:28;6.90;;;2.30;;
23288;SDS011;11813;50.834;4.280;2022-10-16T07:57:54;4.13;;;2.50;;
23288;SDS011;11813;50.834;4.280;2022-10-16T08:00:20;5.57;;;2.30;;
23288;SDS011;11813;50.834;4.280;2022-10-16T08:02:45;5.77;;;2.50;;
23288;SDS011;11813;50.834;4.280;2022-10-16T08:05:11;3.57;;;2.40;;
23288;SDS011;11813;50.834;4.280;2022-10-16T08:07:37;4.30;;;2.30;;
23288;SDS011;11813;50.834;4.280;2022-10-16T08:10:03;4.37;;;2.80;;
23288;SDS011;11813;50.834;4.280;2022-10-16T08:12:29;4.83;;;2.30;;
23288;SDS011;11813;50.834;4.280;2022-10-16T08:14:55;2.77;;;2.30;;
23288;SDS011;11813;50.834;4.280;2022-10-16T08:17:20;2.63;;;2.17;;
23288;SDS011;11813;50.834;4.280;2022-10-16T08:19:46;4.43;;;2.40;;
23288;SDS011;11813;50.834;4.280;2022-10-16T08:22:13;4.90;;;2.43;;
23288;SDS011;11813;50.834;4.280;2022-10-16T08:24:39;2.80;;;1.90;;
23288;SDS011;11813;50.834;4.280;2022-10-16T08:27:05;2.70;;;1.90;;
23288;SDS011;11813;50.834;4.280;2022-10-16T08:29:31;2.20;;;1.90;;
23288;SDS011;11813;50.834;4.280;2022-10-16T08:31:57;4.93;;;2.20;;
23288;SDS011;11813;50.834;4.280;2022-10-16T08:34:23;2.47;;;1.53;;
23288;SDS011;11813;50.834;4.280;2022-10-16T08:36:48;4.27;;;2.13;;
23288;SDS011;11813;50.834;4.280;2022-10-16T08:39:15;3.40;;;1.90;;
23288;SDS011;11813;50.834;4.280;2022-10-16T08:46:44;2.87;;;1.63;;
23288;SDS011;11813;50.834;4.280;2022-10-16T08:49:34;6.77;;;2.37;;
23288;SDS011;11813;50.834;4.280;2022-10-16T08:52:00;4.63;;;2.23;;
23288;SDS011;11813;50.834;4.280;2022-10-16T08:57:13;2.93;;;1.80;;
23288;SDS011;11813;50.834;4.280;2022-10-16T08:59:43;6.70;;;1.73;;
23288;SDS011;11813;50.834;4.280;2022-10-16T09:10:36;5.90;;;2.13;;
23288;SDS011;11813;50.834;4.280;2022-10-16T09:13:12;3.77;;;2.13;;
23288;SDS011;11813;50.834;4.280;2022-10-16T09:18:30;2.57;;;1.50;;
23288;SDS011;11813;50.834;4.280;2022-10-16T09:23:43;5.23;;;1.90;;
23288;SDS011;11813;50.834;4.280;2022-10-16T09:26:10;8.93;;;1.60;;
23288;SDS011;11813;50.834;4.280;2022-10-16T09:28:39;3.73;;;1.60;;
23288;SDS011;11813;50.834;4.280;2022-10-16T09:31:07;7.17;;;1.33;;
23288;SDS011;11813;50.834;4.280;2022-10-16T09:33:40;3.33;;;1.30;;
23288;SDS011;11813;50.834;4.280;2022-10-16T09:36:06;3.38;;;1.60;;
23288;SDS011;11813;50.834;4.280;2022-10-16T09:38:34;2.95;;;1.55;;
23288;SDS011;11813;50.834;4.280;2022-10-16T09:41:02;4.75;;;2.10;;
23288;SDS011;11813;50.834;4.280;2022-10-16T09:43:41;5.70;;;1.60;;
23288;SDS011;11813;50.834;4.280;2022-10-16T09:46:27;10.75;;;1.73;;
23288;SDS011;11813;50.834;4.280;2022-10-16T09:48:57;4.63;;;1.85;;
23288;SDS011;11813;50.834;4.280;2022-10-16T09:51:26;5.22;;;1.60;;
23288;SDS011;11813;50.834;4.280;2022-10-16T09:53:56;6.00;;;1.80;;
23288;SDS011;11813;50.834;4.280;2022-10-16T09:56:27;5.63;;;1.58;;
23288;SDS011;11813;50.834;4.280;2022-10-16T09:58:56;6.60;;;1.40;;
23288;SDS011;11813;50.834;4.280;2022-10-16T10:01:42;5.35;;;1.65;;
23288;SDS011;11813;50.834;4.280;2022-10-16T10:04:11;2.40;;;1.30;;
23288;SDS011;11813;50.834;4.280;2022-10-16T10:06:41;4.72;;;1.55;;
23288;SDS011;11813;50.834;4.280;2022-10-16T10:11:53;2.42;;;1.02;;
23288;SDS011;11813;50.834;4.280;2022-10-16T10:16:50;2.80;;;0.93;;
23288;SDS011;11813;50.834;4.280;2022-10-16T10:19:23;2.45;;;1.13;;
23288;SDS011;11813;50.834;4.280;2022-10-16T10:21:49;4.43;;;1.25;;
23288;SDS011;11813;50.834;4.280;2022-10-16T10:24:17;4.72;;;1.02;;
23288;SDS011;11813;50.834;4.280;2022-10-16T10:26:49;4.90;;;1.42;;
23288;SDS011;11813;50.834;4.280;2022-10-16T10:45:47;4.15;;;1.48;;
23288;SDS011;11813;50.834;4.280;2022-10-16T10:48:31;4.72;;;1.17;;
23288;SDS011;11813;50.834;4.280;2022-10-16T10:54:51;4.55;;;1.30;;
23288;SDS011;11813;50.834;4.280;2022-10-16T10:57:32;5.15;;;1.30;;
23288;SDS011;11813;50.834;4.280;2022-10-16T11:00:12;3.40;;;1.40;;
23288;SDS011;11813;50.834;4.280;2022-10-16T11:03:00;4.15;;;0.90;;
23288;SDS011;11813;50.834;4.280;2022-10-16T11:08:22;2.67;;;1.42;;
23288;SDS011;11813;50.834;4.280;2022-10-16T11:11:43;4.88;;;1.58;;
23288;SDS011;11813;50.834;4.280;2022-10-16T11:19:25;4.65;;;1.20;;
23288;SDS011;11813;50.834;4.280;2022-10-16T11:22:00;4.82;;;1.40;;
23288;SDS011;11813;50.834;4.280;2022-10-16T11:27:16;3.20;;;1.38;;
23288;SDS011;11813;50.834;4.280;2022-10-16T11:29:47;8.30;;;1.58;;
23288;SDS011;11813;50.834;4.280;2022-10-16T11:32:23;3.90;;;0.77;;
23288;SDS011;11813;50.834;4.280;2022-10-16T11:35:02;5.95;;;0.82;;
23288;SDS011;11813;50.834;4.280;2022-10-16T11:37:37;5.72;;;1.00;;
23288;SDS011;11813;50.834;4.280;2022-10-16T11:40:15;1.70;;;0.90;;
23288;SDS011;11813;50.834;4.280;2022-10-16T11:42:54;9.77;;;1.48;;
23288;SDS011;11813;50.834;4.280;2022-10-16T11:45:41;2.53;;;0.75;;
23288;SDS011;11813;50.834;4.280;2022-10-16T11:53:16;2.90;;;1.25;;
23288;SDS011;11813;50.834;4.280;2022-10-16T11:56:06;4.47;;;0.75;;
23288;SDS011;11813;50.834;4.280;2022-10-16T11:58:36;7.63;;;1.40;;
23288;SDS011;11813;50.834;4.280;2022-10-16T12:04:19;2.53;;;0.73;;
23288;SDS011;11813;50.834;4.280;2022-10-16T12:07:01;3.38;;;0.75;;
23288;SDS011;11813;50.834;4.280;2022-10-16T12:09:32;4.57;;;0.98;;
23288;SDS011;11813;50.834;4.280;2022-10-16T12:12:02;3.55;;;1.30;;
23288;SDS011;11813;50.834;4.280;2022-10-16T12:17:01;3.22;;;0.98;;
23288;SDS011;11813;50.834;4.280;2022-10-16T12:19:30;7.88;;;1.40;;
23288;SDS011;11813;50.834;4.280;2022-10-16T12:21:57;2.90;;;1.23;;
23288;SDS011;11813;50.834;4.280;2022-10-16T12:24:35;4.05;;;1.10;;
23288;SDS011;11813;50.834;4.280;2022-10-16T12:27:04;3.13;;;1.38;;
23288;SDS011;11813;50.834;4.280;2022-10-16T12:32:06;2.35;;;0.90;;
23288;SDS011;11813;50.834;4.280;2022-10-16T12:35:01;1.63;;;0.65;;
23288;SDS011;11813;50.834;4.280;2022-10-16T12:37:34;1.77;;;1.00;;
23288;SDS011;11813;50.834;4.280;2022-10-16T12:40:15;1.13;;;0.65;;
23288;SDS011;11813;50.834;4.280;2022-10-16T12:42:50;4.22;;;1.00;;
23288;SDS011;11813;50.834;4.280;2022-10-16T12:48:18;2.10;;;0.75;;
23288;SDS011;11813;50.834;4.280;2022-10-16T12:50:47;1.65;;;0.88;;
23288;SDS011;11813;50.834;4.280;2022-10-16T12:53:17;2.97;;;1.02;;
23288;SDS011;11813;50.834;4.280;2022-10-16T12:55:49;2.20;;;0.80;;
23288;SDS011;11813;50.834;4.280;2022-10-16T12:58:43;2.45;;;1.10;;
23288;SDS011;11813;50.834;4.280;2022-10-16T13:06:56;3.95;;;1.27;;
23288;SDS011;11813;50.834;4.280;2022-10-16T13:12:29;1.15;;;0.95;;
23288;SDS011;11813;50.834;4.280;2022-10-16T13:15:23;2.10;;;1.40;;
23288;SDS011;11813;50.834;4.280;2022-10-16T13:18:05;3.28;;;1.17;;
23288;SDS011;11813;50.834;4.280;2022-10-16T13:20:58;1.95;;;0.77;;
23288;SDS011;11813;50.834;4.280;2022-10-16T13:23:35;3.67;;;1.00;;
23288;SDS011;11813;50.834;4.280;2022-10-16T13:29:08;2.42;;;1.10;;
23288;SDS011;11813;50.834;4.280;2022-10-16T13:31:36;5.32;;;1.08;;
23288;SDS011;11813;50.834;4.280;2022-10-16T13:34:03;3.35;;;1.15;;
23288;SDS011;11813;50.834;4.280;2022-10-16T13:36:34;4.78;;;1.10;;
23288;SDS011;11813;50.834;4.280;2022-10-16T13:39:11;3.40;;;1.30;;
23288;SDS011;11813;50.834;4.280;2022-10-16T13:41:39;3.38;;;1.20;;
23288;SDS011;11813;50.834;4.280;2022-10-16T13:44:08;4.97;;;1.20;;
23288;SDS011;11813;50.834;4.280;2022-10-16T13:46:39;2.67;;;0.60;;
23288;SDS011;11813;50.834;4.280;2022-10-16T13:49:06;3.28;;;1.25;;
23288;SDS011;11813;50.834;4.280;2022-10-16T13:51:38;8.32;;;1.27;;
23288;SDS011;11813;50.834;4.280;2022-10-16T13:54:04;5.63;;;1.15;;
23288;SDS011;11813;50.834;4.280;2022-10-16T13:56:30;2.70;;;1.02;;
23288;SDS011;11813;50.834;4.280;2022-10-16T14:01:46;4.28;;;1.20;;
23288;SDS011;11813;50.834;4.280;2022-10-16T14:04:11;6.35;;;1.90;;
23288;SDS011;11813;50.834;4.280;2022-10-16T14:06:42;2.60;;;1.10;;
23288;SDS011;11813;50.834;4.280;2022-10-16T14:09:25;7.03;;;1.85;;
23288;SDS011;11813;50.834;4.280;2022-10-16T14:12:00;1.80;;;0.95;;
23288;SDS011;11813;50.834;4.280;2022-10-16T14:14:31;1.70;;;0.90;;
23288;SDS011;11813;50.834;4.280;2022-10-16T14:17:05;2.05;;;1.10;;
23288;SDS011;11813;50.834;4.280;2022-10-16T14:19:31;3.60;;;1.02;;
23288;SDS011;11813;50.834;4.280;2022-10-16T14:21:57;3.65;;;1.60;;
23288;SDS011;11813;50.834;4.280;2022-10-16T14:26:56;3.90;;;1.30;;
23288;SDS011;11813;50.834;4.280;2022-10-16T14:29:23;3.67;;;0.82;;
23288;SDS011;11813;50.834;4.280;2022-10-16T14:31:54;3.95;;;0.98;;
23288;SDS011;11813;50.834;4.280;2022-10-16T14:34:32;5.20;;;0.93;;
23288;SDS011;11813;50.834;4.280;2022-10-16T14:39:55;3.08;;;1.10;;
23288;SDS011;11813;50.834;4.280;2022-10-16T14:42:22;3.45;;;1.10;;
23288;SDS011;11813;50.834;4.280;2022-10-16T14:44:50;2.13;;;1.02;;
23288;SDS011;11813;50.834;4.280;2022-10-16T14:47:21;2.17;;;1.00;;
23288;SDS011;11813;50.834;4.280;2022-10-16T14:49:50;1.73;;;1.20;;
23288;SDS011;11813;50.834;4.280;2022-10-16T14:52:16;2.40;;;1.30;;
23288;SDS011;11813;50.834;4.280;2022-10-16T14:54:42;3.33;;;1.00;;
23288;SDS011;11813;50.834;4.280;2022-10-16T14:57:21;6.95;;;1.20;;
23288;SDS011;11813;50.834;4.280;2022-10-16T14:59:49;3.17;;;1.30;;
23288;SDS011;11813;50.834;4.280;2022-10-16T15:04:54;2.95;;;1.40;;
23288;SDS011;11813;50.834;4.280;2022-10-16T15:07:20;3.67;;;1.08;;
23288;SDS011;11813;50.834;4.280;2022-10-16T15:09:46;7.40;;;1.60;;
23288;SDS011;11813;50.834;4.280;2022-10-16T15:12:12;4.07;;;1.17;;
23288;SDS011;11813;50.834;4.280;2022-10-16T15:14:37;2.75;;;1.38;;
23288;SDS011;11813;50.834;4.280;2022-10-16T15:17:03;5.00;;;0.98;;
23288;SDS011;11813;50.834;4.280;2022-10-16T15:19:29;5.82;;;1.42;;
23288;SDS011;11813;50.834;4.280;2022-10-16T15:21:55;4.82;;;1.25;;
23288;SDS011;11813;50.834;4.280;2022-10-16T15:24:20;4.20;;;1.25;;
23288;SDS011;11813;50.834;4.280;2022-10-16T15:26:46;5.90;;;1.67;;
23288;SDS011;11813;50.834;4.280;2022-10-16T15:29:12;4.32;;;1.90;;
23288;SDS011;11813;50.834;4.280;2022-10-16T15:31:38;4.40;;;1.58;;
23288;SDS011;11813;50.834;4.280;2022-10-16T15:34:04;7.10;;;1.92;;
23288;SDS011;11813;50.834;4.280;2022-10-16T15:36:35;2.80;;;1.45;;
23288;SDS011;11813;50.834;4.280;2022-10-16T15:39:02;3.28;;;1.20;;
23288;SDS011;11813;50.834;4.280;2022-10-16T15:41:29;6.18;;;1.83;;
23288;SDS011;11813;50.834;4.280;2022-10-16T15:43:55;5.65;;;2.38;;
23288;SDS011;11813;50.834;4.280;2022-10-16T15:46:21;5.57;;;1.55;;
23288;SDS011;11813;50.834;4.280;2022-10-16T15:48:49;3.42;;;1.73;;
23288;SDS011;11813;50.834;4.280;2022-10-16T15:51:16;4.80;;;2.10;;
23288;SDS011;11813;50.834;4.280;2022-10-16T15:53:43;3.60;;;1.35;;
23288;SDS011;11813;50.834;4.280;2022-10-16T15:56:11;4.13;;;1.88;;
23288;SDS011;11813;50.834;4.280;2022-10-16T15:58:38;3.65;;;1.52;;
23288;SDS011;11813;50.834;4.280;2022-10-16T16:01:04;4.93;;;1.65;;
23288;SDS011;11813;50.834;4.280;2022-10-16T16:03:30;6.97;;;2.15;;
23288;SDS011;11813;50.834;4.280;2022-10-16T16:05:57;2.53;;;1.52;;
23288;SDS011;11813;50.834;4.280;2022-10-16T16:08:22;3.30;;;1.45;;
23288;SDS011;11813;50.834;4.280;2022-10-16T16:10:58;3.10;;;1.60;;
23288;SDS011;11813;50.834;4.280;2022-10-16T16:13:31;7.75;;;1.80;;
23288;SDS011;11813;50.834;4.280;2022-10-16T16:15:57;3.10;;;1.73;;
23288;SDS011;11813;50.834;4.280;2022-10-16T16:18:23;3.97;;;1.60;;
23288;SDS011;11813;50.834;4.280;2022-10-16T16:20:49;2.47;;;1.40;;
23288;SDS011;11813;50.834;4.280;2022-10-16T16:23:16;4.95;;;2.00;;
23288;SDS011;11813;50.834;4.280;2022-10-16T16:25:41;6.63;;;1.77;;
23288;SDS011;11813;50.834;4.280;2022-10-16T16:28:07;3.53;;;1.92;;
23288;SDS011;11813;50.834;4.280;2022-10-16T16:30:35;3.90;;;1.92;;
23288;SDS011;11813;50.834;4.280;2022-10-16T16:33:01;3.60;;;2.03;;
23288;SDS011;11813;50.834;4.280;2022-10-16T16:35:26;6.43;;;2.25;;
23288;SDS011;11813;50.834;4.280;2022-10-16T16:37:52;5.50;;;2.15;;
23288;SDS011;11813;50.834;4.280;2022-10-16T16:40:17;3.28;;;1.80;;
23288;SDS011;11813;50.834;4.280;2022-10-16T16:42:43;3.33;;;1.77;;
23288;SDS011;11813;50.834;4.280;2022-10-16T16:45:08;5.57;;;2.08;;
23288;SDS011;11813;50.834;4.280;2022-10-16T16:47:34;3.60;;;2.10;;
23288;SDS011;11813;50.834;4.280;2022-10-16T16:50:00;2.78;;;2.08;;
23288;SDS011;11813;50.834;4.280;2022-10-16T16:52:29;6.53;;;2.10;;